aviador You're here:

GMML Decoded Metar

LAAYOUNE/HASSAN in OCCIDENTAL SAHARA
Report Time2017-09-25 16:00:00
UTC Time2017-09-25 16:56:22
Flight Rules mvfr MVFR
Wind290° at 08 kt
W.Decomp.*RWY 22: 2.2 kt HW 7.7 kt RCW
RWY 02: 0.6 kt HW 8 kt LCW
W.Rank290° ranks 25
Current wind is above 290° avg. (7.1)
Visibility7000 m
Phenomena:Light Rain
Clouds:Few CB 023 Hf
Broken 100 Hf
Expected CloudBase > 2,000 ft AGL from Temp-Dew spread
Ceiling10,000 ft
Temp24°C (ISA +9)
Dew Point19°C (74% RH)
QNH1020 hPa
Density Alt1,125 ft
Elevation20 ft
Report Wrong Elevation
Raw Report
GMML 251600Z 29008KT 7000 -RA FEW023CB BKN100 24/19 Q1020
NOSIG=

Extra information for GMML:More info

Metar Taf Metar & Taf Last 4 Metars F.Rules Stats Wind Profile Meteogram Temp Stats Airport Information Weather charts Add Link Nearby VenuesMetar ALERT Operation Metar Decoded Social comments